Claude, Oregon
Current Conditions -  °F | °C
As of 12:22 PM on Friday 28 Nov 2014 (Local Time) from KONO Reporting Station
Haze Haze  
Wind Chill: 40°   Ceiling: 300
Heat Index: 43°   Visibility: 2mi
Dew Point: 42°   Wind: 5mph
Humidity: 97%   Direction: 250°WSW
Pressure: 29.78"   Gusts: NA
Location:  44.0817°N, 117.014°W
Report Text: KONO 281922Z AUTO 25004KT 2SM BR OVC003 06/06 A2978 RMK AO2 T00610056
Loading
Personal Weather Stations






























Interactive Weather Map New forecast layout! Learn more

10-Day Weather Forecast

Advertisements
Track Severe Weather on mobile